createdAt,value
2022-11-27T00:01:38.808Z,29.55
2022-11-27T00:04:08.820Z,29.51
2022-11-27T00:06:39.239Z,29.18
2022-11-27T00:09:12.470Z,28.67
2022-11-27T00:11:41.648Z,28.90
2022-11-27T00:14:13.806Z,28.29
2022-11-27T00:16:42.873Z,29.19
2022-11-27T00:19:12.727Z,29.25
2022-11-27T00:21:41.819Z,29.02
2022-11-27T00:24:13.203Z,28.46
2022-11-27T00:26:42.158Z,28.33
2022-11-27T00:29:11.558Z,28.31
2022-11-27T00:31:41.491Z,29.70
2022-11-27T00:34:11.701Z,31.48
2022-11-27T00:36:43.985Z,30.78
2022-11-27T00:39:15.843Z,29.88
2022-11-27T00:41:44.669Z,28.70
2022-11-27T00:44:16.809Z,28.66
2022-11-27T00:46:46.771Z,29.59
2022-11-27T00:49:16.252Z,30.36
2022-11-27T00:51:45.730Z,30.19
2022-11-27T00:54:14.506Z,28.70
2022-11-27T00:56:43.488Z,30.18
2022-11-27T00:59:13.383Z,30.33
2022-11-27T01:01:44.335Z,30.17
2022-11-27T01:04:16.479Z,30.53
2022-11-27T01:06:46.477Z,30.79
2022-11-27T01:09:16.391Z,30.30
2022-11-27T01:11:45.181Z,31.61
2022-11-27T01:14:17.565Z,30.23
2022-11-27T01:16:46.748Z,30.49
2022-11-27T01:19:16.805Z,30.65
2022-11-27T01:21:45.915Z,32.05
2022-11-27T01:24:17.213Z,31.85
2022-11-27T01:26:46.314Z,32.02
2022-11-27T01:29:15.229Z,32.44
2022-11-27T01:31:44.343Z,32.41
2022-11-27T01:34:19.141Z,32.46
2022-11-27T01:36:48.560Z,32.87
2022-11-27T01:39:20.356Z,31.74
2022-11-27T01:41:49.947Z,31.67
2022-11-27T01:44:28.589Z,31.05
2022-11-27T01:47:01.050Z,30.11
2022-11-27T01:49:50.074Z,31.53
2022-11-27T01:52:41.183Z,31.17
2022-11-27T01:55:21.589Z,30.54
2022-11-27T01:57:56.099Z,30.84
2022-11-27T02:00:25.959Z,30.66
2022-11-27T02:02:54.705Z,30.41
2022-11-27T02:05:26.558Z,30.19
2022-11-27T02:07:58.288Z,28.86
2022-11-27T02:10:41.837Z,28.77
2022-11-27T02:13:19.620Z,28.84
2022-11-27T02:15:55.120Z,29.34
2022-11-27T02:18:37.761Z,29.01
2022-11-27T02:21:27.973Z,28.69
2022-11-27T02:24:18.330Z,29.54
2022-11-27T02:27:17.859Z,29.27
2022-11-27T02:29:51.269Z,32.33
2022-11-27T02:33:03.330Z,31.19
2022-11-27T02:35:42.911Z,30.60
2022-11-27T02:38:40.288Z,29.87
2022-11-27T02:41:17.624Z,32.79
2022-11-27T02:43:51.410Z,32.07
2022-11-27T02:46:22.150Z,31.49
2022-11-27T02:48:56.491Z,32.32
2022-11-27T02:51:34.666Z,32.89
2022-11-27T02:54:08.594Z,33.02
2022-11-27T02:56:40.169Z,34.69
2022-11-27T02:59:13.966Z,33.14
2022-11-27T03:01:47.262Z,36.49
2022-11-27T03:04:22.355Z,33.91
2022-11-27T03:06:56.900Z,33.91
2022-11-27T03:09:49.939Z,35.40
2022-11-27T03:12:20.201Z,35.11
2022-11-27T03:14:49.975Z,37.99
2022-11-27T03:17:24.664Z,36.67
2022-11-27T03:20:02.156Z,36.77
2022-11-27T03:22:32.513Z,37.35
2022-11-27T03:25:01.577Z,37.02
2022-11-27T03:27:38.781Z,36.37
2022-11-27T03:30:10.234Z,34.43
2022-11-27T03:32:39.284Z,36.23
2022-11-27T03:35:12.041Z,35.54
2022-11-27T03:37:41.181Z,37.24
2022-11-27T03:40:11.039Z,36.28
2022-11-27T03:43:00.317Z,35.20
2022-11-27T03:45:50.025Z,35.81
2022-11-27T03:48:24.623Z,37.76
2022-11-27T03:51:08.364Z,38.60
2022-11-27T03:53:46.550Z,37.48
2022-11-27T03:56:27.089Z,36.01
2022-11-27T03:59:22.450Z,36.31
2022-11-27T04:01:51.557Z,37.33
2022-11-27T04:04:20.779Z,36.85
2022-11-27T04:06:50.635Z,35.25
2022-11-27T04:09:19.207Z,38.51
2022-11-27T04:11:48.538Z,37.99
2022-11-27T04:14:17.211Z,39.53
2022-11-27T04:16:46.187Z,38.37
2022-11-27T04:19:15.027Z,38.32
2022-11-27T04:21:44.627Z,38.40
2022-11-27T04:24:13.574Z,39.52
2022-11-27T04:26:42.730Z,41.05
2022-11-27T04:29:11.587Z,38.21
2022-11-27T04:31:40.767Z,38.96
2022-11-27T04:34:09.574Z,38.69
2022-11-27T04:36:39.600Z,37.17
2022-11-27T04:39:08.701Z,39.73
2022-11-27T04:41:37.640Z,38.94
2022-11-27T04:44:08.341Z,38.59
2022-11-27T04:46:37.700Z,37.15
2022-11-27T04:49:06.661Z,39.64
2022-11-27T04:51:35.576Z,38.25
2022-11-27T04:54:04.368Z,38.80
2022-11-27T04:56:33.480Z,40.47
2022-11-27T04:59:02.803Z,36.39
2022-11-27T05:01:32.240Z,36.44
2022-11-27T05:04:00.907Z,37.07
2022-11-27T05:06:29.885Z,36.21
2022-11-27T05:09:02.914Z,35.25
2022-11-27T05:11:33.238Z,34.82
2022-11-27T05:14:18.254Z,28.87
2022-11-27T05:16:50.124Z,32.45
2022-11-27T05:19:21.098Z,37.58
2022-11-27T05:21:51.064Z,31.60
2022-11-27T05:24:22.173Z,33.22
2022-11-27T05:26:51.177Z,31.06
2022-11-27T05:29:20.538Z,31.36
2022-11-27T05:31:49.859Z,31.96
2022-11-27T05:34:18.795Z,32.05
2022-11-27T05:36:47.642Z,32.36
2022-11-27T05:39:16.479Z,32.49
2022-11-27T05:41:45.869Z,31.30
2022-11-27T05:44:15.986Z,33.38
2022-11-27T05:46:45.216Z,33.22
2022-11-27T05:49:15.600Z,31.38
2022-11-27T05:51:50.672Z,31.67
2022-11-27T05:54:20.565Z,27.72
2022-11-27T05:56:49.294Z,28.28
2022-11-27T05:59:18.161Z,32.64
2022-11-27T06:01:46.849Z,32.51
2022-11-27T06:04:15.683Z,34.39
2022-11-27T06:06:44.338Z,35.15
2022-11-27T06:09:13.685Z,30.43
2022-11-27T06:11:43.347Z,32.29
2022-11-27T06:14:13.032Z,29.16
2022-11-27T06:16:42.608Z,30.37
2022-11-27T06:19:14.190Z,29.42
2022-11-27T06:21:43.084Z,28.29
2022-11-27T06:24:12.152Z,27.73
2022-11-27T06:26:40.932Z,29.36
2022-11-27T06:29:10.515Z,26.98
2022-11-27T06:31:45.802Z,25.49
2022-11-27T06:34:15.334Z,30.48
2022-11-27T06:36:43.901Z,22.18
2022-11-27T06:39:13.065Z,26.69
2022-11-27T06:41:43.372Z,25.38
2022-11-27T06:44:14.195Z,24.36
2022-11-27T06:46:46.151Z,25.56
2022-11-27T06:49:15.152Z,24.27
2022-11-27T06:51:43.730Z,22.76
2022-11-27T06:54:12.530Z,22.27
2022-11-27T06:56:41.143Z,24.06
2022-11-27T06:59:15.441Z,23.93
2022-11-27T07:01:44.549Z,22.74
2022-11-27T07:04:15.000Z,23.91
2022-11-27T07:06:44.410Z,22.30
2022-11-27T07:09:13.478Z,23.48
2022-11-27T07:11:43.206Z,25.29
2022-11-27T07:14:12.730Z,24.42
2022-11-27T07:16:42.413Z,26.96
2022-11-27T07:19:12.018Z,24.38
2022-11-27T07:21:40.977Z,22.16
2022-11-27T07:24:09.814Z,19.87
2022-11-27T07:26:38.846Z,22.91
2022-11-27T07:29:07.606Z,23.98
2022-11-27T07:31:36.382Z,27.65
2022-11-27T07:34:07.035Z,25.64
2022-11-27T07:36:40.632Z,23.47
2022-11-27T07:39:09.190Z,25.14
2022-11-27T07:41:38.017Z,23.28
2022-11-27T07:44:07.338Z,26.47
2022-11-27T07:46:36.181Z,27.92
2022-11-27T07:49:04.865Z,21.94
2022-11-27T07:51:33.740Z,21.29
2022-11-27T07:54:05.016Z,22.09
2022-11-27T07:56:33.879Z,22.67
2022-11-27T07:59:02.433Z,22.45
2022-11-27T08:01:31.222Z,24.46
2022-11-27T08:04:00.726Z,23.84
2022-11-27T08:06:29.569Z,23.67
2022-11-27T08:08:58.371Z,23.29
2022-11-27T08:11:31.290Z,23.36
2022-11-27T08:14:03.020Z,27.39
2022-11-27T08:16:34.493Z,22.82
2022-11-27T08:19:03.404Z,23.29
2022-11-27T08:21:32.006Z,23.54
2022-11-27T08:24:01.728Z,23.08
2022-11-27T08:26:30.946Z,25.08
2022-11-27T08:29:00.512Z,23.28
2022-11-27T08:31:29.235Z,23.53
2022-11-27T08:33:58.035Z,23.65
2022-11-27T08:36:29.829Z,24.97
2022-11-27T08:38:58.702Z,23.92
2022-11-27T08:41:27.350Z,24.68
2022-11-27T08:43:56.580Z,24.47
2022-11-27T08:46:25.670Z,26.04
2022-11-27T08:48:54.607Z,24.34
2022-11-27T08:51:23.781Z,24.41
2022-11-27T08:53:54.042Z,25.36
2022-11-27T08:56:25.686Z,25.00
2022-11-27T08:58:54.896Z,25.05
2022-11-27T09:01:30.134Z,24.48
2022-11-27T09:04:00.529Z,25.35
2022-11-27T09:06:33.215Z,26.54
2022-11-27T09:09:03.802Z,26.20
2022-11-27T09:11:34.565Z,25.81
2022-11-27T09:14:04.527Z,26.10
2022-11-27T09:16:33.443Z,27.33
2022-11-27T09:19:02.719Z,28.36
2022-11-27T09:21:31.888Z,28.21
2022-11-27T09:24:02.853Z,29.11
2022-11-27T09:26:32.224Z,29.25
2022-11-27T09:29:01.140Z,29.64
2022-11-27T09:31:30.344Z,30.84
2022-11-27T09:34:00.118Z,30.89
2022-11-27T09:36:29.619Z,31.07
2022-11-27T09:39:00.566Z,32.18
2022-11-27T09:41:52.862Z,31.71
2022-11-27T09:44:25.280Z,31.25
2022-11-27T09:46:58.014Z,31.34
2022-11-27T09:49:34.961Z,31.37
2022-11-27T09:52:05.624Z,31.19
2022-11-27T09:54:58.891Z,31.40
2022-11-27T09:57:35.475Z,32.31
2022-11-27T10:00:12.692Z,32.46
2022-11-27T10:02:46.255Z,31.94
2022-11-27T10:05:30.119Z,31.88
2022-11-27T10:08:20.819Z,32.44
2022-11-27T10:11:31.351Z,32.02
2022-11-27T10:14:33.541Z,31.79
2022-11-27T10:17:14.447Z,30.78
2022-11-27T10:20:12.425Z,31.11
2022-11-27T10:22:58.207Z,32.16
2022-11-27T10:25:40.335Z,31.47
2022-11-27T10:28:34.770Z,31.80
2022-11-27T10:31:12.047Z,32.87
2022-11-27T10:33:47.627Z,31.02
2022-11-27T10:36:20.507Z,31.87
2022-11-27T10:38:50.155Z,32.80
2022-11-27T10:41:49.254Z,32.91
2022-11-27T10:44:43.040Z,33.47
2022-11-27T10:47:15.493Z,34.69
2022-11-27T10:49:46.125Z,35.65
2022-11-27T10:52:18.622Z,36.57
2022-11-27T10:54:55.027Z,37.83
2022-11-27T10:57:39.860Z,39.84
2022-11-27T11:00:24.067Z,40.15
2022-11-27T11:03:07.581Z,41.92
2022-11-27T11:06:04.234Z,42.87
2022-11-27T11:08:30.400Z,43.57
2022-11-27T11:11:03.371Z,44.05
2022-11-27T11:13:51.120Z,45.33
2022-11-27T11:16:25.363Z,45.80
2022-11-27T11:18:57.449Z,48.41
2022-11-27T11:21:30.384Z,49.04
2022-11-27T11:24:15.007Z,49.84
2022-11-27T11:26:53.649Z,50.27
2022-11-27T11:29:31.703Z,50.32
2022-11-27T11:32:09.621Z,51.17
2022-11-27T11:34:45.484Z,52.34
2022-11-27T11:37:36.479Z,53.37
2022-11-27T11:40:14.788Z,53.93
2022-11-27T11:43:08.849Z,55.03
2022-11-27T11:45:47.539Z,56.28
2022-11-27T11:48:29.868Z,57.26
2022-11-27T11:51:21.153Z,58.16
2022-11-27T11:54:25.404Z,59.52
2022-11-27T11:56:58.128Z,59.98
2022-11-27T12:00:02.804Z,60.50
2022-11-27T12:03:00.391Z,60.87
2022-11-27T12:05:43.695Z,62.08
2022-11-27T12:09:07.047Z,63.44
2022-11-27T12:11:44.613Z,65.24
2022-11-27T12:14:37.227Z,66.03
2022-11-27T12:17:51.938Z,67.19
2022-11-27T12:20:35.175Z,68.54
2022-11-27T12:23:46.093Z,68.93
2022-11-27T12:26:29.790Z,69.88
2022-11-27T12:29:04.497Z,71.21
2022-11-27T12:31:58.317Z,71.89
2022-11-27T12:34:45.377Z,72.37
2022-11-27T12:37:32.575Z,72.27
2022-11-27T12:40:25.769Z,74.16
2022-11-27T12:43:27.377Z,72.35
2022-11-27T12:46:01.414Z,73.22
2022-11-27T12:48:54.163Z,73.19
2022-11-27T12:51:35.840Z,72.66
2022-11-27T12:54:11.244Z,73.12
2022-11-27T12:56:51.810Z,75.32
2022-11-27T13:03:27.131Z,72.45
2022-11-27T13:06:16.399Z,73.38
2022-11-27T13:08:56.187Z,74.73
2022-11-27T13:11:34.325Z,75.44
2022-11-27T13:14:25.287Z,73.67
2022-11-27T13:17:01.205Z,75.17
2022-11-27T13:19:36.966Z,77.64
2022-11-27T13:22:11.366Z,76.02
2022-11-27T13:24:41.662Z,76.50
2022-11-27T13:27:20.574Z,76.17
2022-11-27T13:29:50.565Z,76.24
2022-11-27T13:32:32.887Z,73.36
2022-11-27T13:35:09.089Z,76.02
2022-11-27T13:37:42.486Z,77.33
2022-11-27T13:40:29.248Z,79.48
2022-11-27T13:43:05.286Z,80.53
2022-11-27T13:46:28.167Z,82.92
2022-11-27T13:49:04.727Z,85.51
2022-11-27T13:51:41.045Z,87.85
2022-11-27T13:54:15.606Z,89.32
2022-11-27T13:56:46.908Z,89.89
2022-11-27T14:10:34.603Z,90.90
2022-11-27T14:13:10.979Z,91.44
2022-11-27T14:15:42.585Z,92.75
2022-11-27T14:18:24.487Z,91.89
2022-11-27T14:21:00.505Z,91.11
2022-11-27T14:23:51.107Z,91.20
2022-11-27T14:26:25.929Z,90.87
2022-11-27T14:28:56.957Z,86.84
2022-11-27T14:31:34.971Z,85.63
2022-11-27T14:34:23.333Z,84.02
2022-11-27T14:36:54.201Z,83.19
2022-11-27T14:39:25.387Z,81.88
2022-11-27T14:42:03.757Z,83.91
2022-11-27T14:44:34.026Z,83.40
2022-11-27T14:47:06.812Z,84.09
2022-11-27T14:49:36.126Z,82.87
2022-11-27T14:52:08.625Z,79.26
2022-11-27T14:54:40.350Z,79.23
2022-11-27T14:57:19.580Z,72.58
2022-11-27T14:59:48.647Z,66.38
2022-11-27T15:02:24.565Z,66.12
2022-11-27T15:05:05.839Z,61.52
2022-11-27T15:07:45.180Z,59.06
2022-11-27T15:10:36.802Z,57.88
2022-11-27T15:13:08.945Z,59.19
2022-11-27T15:15:44.411Z,57.07
2022-11-27T15:18:24.247Z,58.22
2022-11-27T15:20:53.997Z,58.23
2022-11-27T15:23:32.387Z,59.01
2022-11-27T15:26:01.310Z,58.53
2022-11-27T15:28:37.112Z,57.12
2022-11-27T15:31:31.825Z,57.80
2022-11-27T15:34:17.874Z,53.55
2022-11-27T15:36:50.568Z,53.65
2022-11-27T15:39:24.552Z,52.42
2022-11-27T15:41:55.557Z,50.86
2022-11-27T15:44:26.157Z,50.54
2022-11-27T15:46:57.102Z,49.43
2022-11-27T15:49:26.129Z,47.92
2022-11-27T15:51:57.253Z,48.82
2022-11-27T15:54:27.024Z,46.71
2022-11-27T15:56:55.770Z,46.89
2022-11-27T15:59:25.897Z,47.65
2022-11-27T16:01:56.482Z,51.17
2022-11-27T16:04:25.576Z,51.57
2022-11-27T16:06:54.548Z,52.74
2022-11-27T16:09:23.237Z,53.51
2022-11-27T16:11:52.957Z,54.15
2022-11-27T16:14:21.731Z,54.96
2022-11-27T16:16:51.021Z,55.07
2022-11-27T16:19:19.733Z,55.80
2022-11-27T16:21:48.889Z,55.98
2022-11-27T16:24:17.817Z,55.63
2022-11-27T16:26:46.811Z,54.34
2022-11-27T16:29:15.557Z,55.02
2022-11-27T16:31:44.872Z,55.25
2022-11-27T16:34:17.657Z,54.78
2022-11-27T16:36:48.146Z,54.11
2022-11-27T16:39:18.691Z,54.66
2022-11-27T16:41:48.018Z,54.79
2022-11-27T16:44:17.161Z,54.63
2022-11-27T16:46:46.960Z,53.29
2022-11-27T16:49:16.157Z,52.95
2022-11-27T16:51:45.998Z,52.73
2022-11-27T16:54:15.869Z,51.67
2022-11-27T16:56:45.120Z,52.11
2022-11-27T16:59:16.582Z,52.01
2022-11-27T17:01:46.214Z,51.80
2022-11-27T17:04:23.878Z,51.37
2022-11-27T17:06:53.406Z,51.50
2022-11-27T17:09:24.678Z,51.32
2022-11-27T17:11:53.747Z,51.40
2022-11-27T17:14:22.703Z,51.53
2022-11-27T17:16:51.983Z,51.20
2022-11-27T17:19:21.065Z,51.14
2022-11-27T17:21:50.497Z,49.71
2022-11-27T17:24:19.958Z,50.16
2022-11-27T17:26:49.531Z,50.40
2022-11-27T17:29:22.643Z,50.04
2022-11-27T17:31:52.115Z,49.39
2022-11-27T17:34:22.617Z,48.96
2022-11-27T17:36:54.938Z,46.83
2022-11-27T17:39:24.968Z,45.42
2022-11-27T17:41:53.712Z,45.56
2022-11-27T17:44:22.461Z,45.48
2022-11-27T17:46:52.078Z,45.34
2022-11-27T17:49:22.847Z,44.69
2022-11-27T17:51:52.080Z,44.62
2022-11-27T17:54:22.007Z,44.81
2022-11-27T17:56:52.325Z,44.35
2022-11-27T17:59:22.257Z,45.11
2022-11-27T18:01:53.824Z,44.43
2022-11-27T18:04:23.223Z,44.49
2022-11-27T18:06:52.083Z,44.47
2022-11-27T18:09:24.407Z,45.24
2022-11-27T18:11:56.757Z,46.42
2022-11-27T18:14:25.981Z,48.55
2022-11-27T18:16:55.326Z,49.60
2022-11-27T18:19:24.723Z,50.05
2022-11-27T18:21:53.575Z,51.38
2022-11-27T18:24:23.867Z,51.16
2022-11-27T18:27:09.857Z,51.42
2022-11-27T18:29:42.482Z,50.03
2022-11-27T18:32:14.106Z,48.73
2022-11-27T18:34:43.533Z,47.36
2022-11-27T18:37:14.161Z,46.47
2022-11-27T18:39:45.296Z,45.02
2022-11-27T18:42:14.800Z,43.07
2022-11-27T18:44:45.406Z,41.95
2022-11-27T18:47:16.832Z,42.36
2022-11-27T18:49:48.559Z,43.52
2022-11-27T18:52:17.643Z,43.98
2022-11-27T18:54:47.244Z,44.56
2022-11-27T18:57:16.106Z,45.64
2022-11-27T18:59:47.072Z,45.18
2022-11-27T19:02:16.106Z,45.81
2022-11-27T19:04:45.487Z,46.66
2022-11-27T19:07:14.801Z,47.36
2022-11-27T19:09:44.280Z,48.23
2022-11-27T19:12:13.755Z,48.19
2022-11-27T19:14:42.826Z,47.44
2022-11-27T19:17:12.577Z,44.57
2022-11-27T19:19:57.201Z,45.94
2022-11-27T19:22:27.883Z,44.91
2022-11-27T19:24:58.124Z,44.98
2022-11-27T19:27:27.042Z,45.12
2022-11-27T19:29:55.896Z,44.96
2022-11-27T19:32:24.775Z,45.20
2022-11-27T19:34:53.509Z,45.09
2022-11-27T19:37:34.062Z,45.69
2022-11-27T19:40:06.510Z,45.31
2022-11-27T19:42:35.368Z,45.08
2022-11-27T19:45:04.297Z,45.61
2022-11-27T19:47:33.313Z,45.32
2022-11-27T19:50:02.505Z,45.58
2022-11-27T19:52:31.922Z,46.09
2022-11-27T19:55:00.634Z,46.73
2022-11-27T19:57:30.037Z,47.22
2022-11-27T19:59:59.803Z,46.73
2022-11-27T20:02:30.766Z,46.79
2022-11-27T20:05:12.310Z,47.29
2022-11-27T20:07:41.972Z,46.49
2022-11-27T20:10:11.764Z,47.01
2022-11-27T20:12:42.360Z,46.43
2022-11-27T20:15:17.838Z,46.34
2022-11-27T20:17:47.035Z,46.25
2022-11-27T20:20:17.916Z,46.05
2022-11-27T20:22:50.580Z,45.25
2022-11-27T20:25:20.729Z,46.60
2022-11-27T20:27:51.516Z,45.17
2022-11-27T20:30:20.689Z,45.81
2022-11-27T20:32:49.518Z,46.21
2022-11-27T20:35:18.913Z,46.07
2022-11-27T20:37:49.785Z,45.91
2022-11-27T20:40:21.231Z,46.25
2022-11-27T20:42:50.386Z,45.67
2022-11-27T20:45:20.675Z,45.34
2022-11-27T20:47:51.438Z,44.87
2022-11-27T20:50:21.201Z,44.00
2022-11-27T20:52:52.424Z,43.95
2022-11-27T20:55:22.323Z,43.99
2022-11-27T20:57:54.710Z,43.88
2022-11-27T21:00:25.092Z,44.14
2022-11-27T21:02:54.556Z,43.73
2022-11-27T21:05:23.407Z,43.63
2022-11-27T21:07:52.674Z,44.16
2022-11-27T21:10:24.020Z,44.49
2022-11-27T21:12:53.470Z,45.26
2022-11-27T21:15:23.124Z,46.43
2022-11-27T21:17:52.078Z,46.54
2022-11-27T21:20:21.700Z,47.34
2022-11-27T21:22:50.737Z,47.47
2022-11-27T21:25:23.994Z,48.00
2022-11-27T21:27:56.883Z,48.18
2022-11-27T21:30:26.316Z,48.31
2022-11-27T21:32:55.072Z,48.08
2022-11-27T21:35:31.233Z,48.47
2022-11-27T21:38:01.134Z,48.31
2022-11-27T21:40:29.951Z,48.43
2022-11-27T21:42:59.430Z,47.90
2022-11-27T21:45:28.444Z,48.10
2022-11-27T21:47:58.039Z,47.90
2022-11-27T21:50:27.117Z,47.86
2022-11-27T21:52:56.800Z,48.06
2022-11-27T21:55:27.118Z,48.30
2022-11-27T21:57:57.115Z,48.26
2022-11-27T22:00:25.947Z,47.67
2022-11-27T22:02:54.876Z,47.35
2022-11-27T22:05:23.814Z,47.44
2022-11-27T22:08:12.748Z,43.17
2022-11-27T22:11:02.954Z,42.63
2022-11-27T22:13:52.094Z,42.60
2022-11-27T22:16:24.199Z,43.35
2022-11-27T22:18:57.005Z,42.91
2022-11-27T22:21:30.523Z,41.81
2022-11-27T22:24:02.027Z,41.78
2022-11-27T22:26:31.315Z,42.38
2022-11-27T22:29:00.487Z,39.75
2022-11-27T22:31:34.134Z,38.22
2022-11-27T22:34:05.593Z,38.05
2022-11-27T22:36:36.098Z,39.14
2022-11-27T22:39:08.673Z,38.88
2022-11-27T22:41:40.161Z,40.03
2022-11-27T22:44:15.500Z,41.33
2022-11-27T22:46:46.121Z,41.82
2022-11-27T22:49:16.786Z,40.56
2022-11-27T22:51:46.727Z,41.20
2022-11-27T22:54:17.955Z,40.21
2022-11-27T22:56:48.076Z,39.47
2022-11-27T22:59:34.528Z,40.80
2022-11-27T23:02:07.649Z,40.36
2022-11-27T23:04:38.845Z,41.14
2022-11-27T23:07:08.355Z,41.50
2022-11-27T23:09:37.246Z,42.59
2022-11-27T23:12:07.420Z,43.74
2022-11-27T23:14:36.962Z,43.85
2022-11-27T23:17:06.132Z,45.33
2022-11-27T23:19:35.113Z,45.12
2022-11-27T23:22:04.954Z,44.58
2022-11-27T23:24:33.682Z,43.43
2022-11-27T23:27:02.923Z,42.97
2022-11-27T23:29:32.064Z,42.91
2022-11-27T23:32:01.126Z,41.13
2022-11-27T23:34:30.511Z,42.01
2022-11-27T23:36:59.906Z,42.07
2022-11-27T23:39:28.686Z,42.56
2022-11-27T23:41:57.711Z,40.99
2022-11-27T23:44:26.910Z,40.82
2022-11-27T23:46:55.967Z,40.43
2022-11-27T23:49:24.740Z,40.79
2022-11-27T23:51:54.130Z,40.47
2022-11-27T23:54:22.834Z,38.87
2022-11-27T23:56:53.425Z,39.43
2022-11-27T23:59:22.791Z,37.30
